Time;durP1;ratioP1;P1;durP2;ratioP2;P2;SDS_P1;SDS_P2;PMS_P1;PMS_P2;Temp;Humidity;BMP_temperature;BMP_pressure;BME280_temperature;BME280_humidity;BME280_pressure;Samples;Min_cycle;Max_cycle;Signal;HPM_P1;HPM_P2
2021/07/17 00:01:08;;;;;;;17.00;10.85;;;18.40;1.00;;;;;;5034630;28;20026;-85
2021/07/17 00:03:34;;;;;;;14.38;11.00;;;18.50;1.00;;;;;;5035084;28;20041;-85
2021/07/17 00:05:59;;;;;;;16.00;10.45;;;18.40;1.00;;;;;;5028499;28;20207;-85
2021/07/17 00:08:25;;;;;;;16.17;11.73;;;18.30;1.00;;;;;;5037287;28;20104;-85
2021/07/17 00:10:51;;;;;;;14.90;11.77;;;18.30;1.00;;;;;;5035821;28;20436;-85
2021/07/17 00:13:19;;;;;;;15.70;11.35;;;18.30;1.00;;;;;;5034633;28;20032;-85
2021/07/17 00:15:45;;;;;;;14.00;10.88;;;18.30;1.00;;;;;;5035558;28;20492;-85
2021/07/17 00:18:14;;;;;;;15.18;10.25;;;18.30;1.00;;;;;;5032177;28;20021;-84
2021/07/17 00:20:47;;;;;;;15.30;10.95;;;18.20;1.00;;;;;;5033483;28;20040;-85
2021/07/17 00:23:13;;;;;;;14.13;11.07;;;18.20;1.00;;;;;;5035308;28;20065;-84
2021/07/17 00:25:39;;;;;;;14.48;11.05;;;18.20;1.00;;;;;;5034805;28;20115;-82
2021/07/17 00:28:09;;;;;;;16.02;11.63;;;18.10;1.00;;;;;;5035921;28;20189;-85
2021/07/17 00:30:35;;;;;;;14.18;10.65;;;18.00;1.00;;;;;;5035818;28;20041;-84
2021/07/17 00:33:06;;;;;;;15.38;12.15;;;18.00;1.00;;;;;;5031044;28;20032;-85
2021/07/17 00:35:32;;;;;;;16.33;11.23;;;17.80;1.00;;;;;;5030048;28;20064;-84
2021/07/17 00:37:58;;;;;;;16.13;11.85;;;17.80;1.00;;;;;;5035744;28;20022;-84
2021/07/17 00:40:24;;;;;;;14.30;11.20;;;17.70;1.00;;;;;;5035174;28;20108;-84
2021/07/17 00:42:51;;;;;;;16.17;10.82;;;17.70;1.00;;;;;;5034812;28;20524;-84
2021/07/17 00:45:18;;;;;;;12.38;10.70;;;17.80;1.00;;;;;;5032277;28;20022;-85
2021/07/17 00:47:44;;;;;;;13.25;11.13;;;17.80;1.00;;;;;;5033487;28;20033;-85
2021/07/17 00:50:13;;;;;;;14.98;11.70;;;17.70;1.00;;;;;;5032446;28;20486;-85
2021/07/17 00:52:40;;;;;;;12.75;10.60;;;17.80;1.00;;;;;;5035042;28;20017;-84
2021/07/17 00:55:07;;;;;;;14.27;11.38;;;17.70;1.00;;;;;;5035209;28;20397;-83
2021/07/17 00:57:33;;;;;;;15.75;11.30;;;17.70;1.00;;;;;;5034992;28;20104;-85
2021/07/17 01:00:00;;;;;;;12.40;10.48;;;17.70;1.00;;;;;;5015527;28;20397;-84
2021/07/17 01:02:30;;;;;;;14.20;10.18;;;17.70;1.00;;;;;;5036430;28;20049;-85
2021/07/17 01:04:56;;;;;;;13.32;11.63;;;17.70;1.00;;;;;;5032174;28;20378;-84
2021/07/17 01:07:25;;;;;;;17.02;11.60;;;17.70;1.00;;;;;;5033353;28;20036;-85
2021/07/17 01:09:51;;;;;;;13.52;11.82;;;17.70;1.00;;;;;;5034715;28;20610;-85
2021/07/17 01:12:18;;;;;;;15.15;11.35;;;17.70;1.00;;;;;;5031695;28;20463;-86
2021/07/17 01:14:43;;;;;;;18.75;11.82;;;17.70;1.00;;;;;;5033196;28;20053;-84
2021/07/17 01:17:09;;;;;;;17.08;11.43;;;17.70;1.00;;;;;;5034767;28;20059;-85
2021/07/17 01:19:35;;;;;;;14.70;11.30;;;17.70;1.00;;;;;;5037845;28;20063;-84
2021/07/17 01:22:01;;;;;;;14.63;11.27;;;17.70;1.00;;;;;;5042321;28;20041;-84
2021/07/17 01:24:26;;;;;;;14.95;11.63;;;17.70;1.00;;;;;;5032145;28;20112;-84
2021/07/17 01:26:52;;;;;;;15.27;12.45;;;17.80;1.00;;;;;;5028948;28;20417;-85
2021/07/17 01:29:19;;;;;;;15.13;11.18;;;17.80;1.00;;;;;;5035438;28;20104;-85
2021/07/17 01:31:45;;;;;;;14.43;11.25;;;17.80;1.00;;;;;;5033971;28;20107;-85
2021/07/17 01:34:11;;;;;;;14.45;11.27;;;17.90;1.00;;;;;;5033857;28;20070;-85
2021/07/17 01:36:37;;;;;;;15.73;12.35;;;17.90;1.00;;;;;;5045092;28;20115;-85
2021/07/17 01:39:04;;;;;;;15.73;10.50;;;17.90;1.00;;;;;;5027713;28;20422;-84
2021/07/17 01:41:30;;;;;;;15.40;11.82;;;17.90;1.00;;;;;;5036268;28;20152;-85
2021/07/17 01:43:57;;;;;;;15.05;11.40;;;18.00;1.00;;;;;;5032933;28;20398;-84
2021/07/17 01:46:24;;;;;;;15.15;11.43;;;17.90;1.00;;;;;;5034458;28;20036;-84
2021/07/17 01:48:58;;;;;;;16.85;11.80;;;17.90;1.00;;;;;;5030937;28;20049;-85
2021/07/17 01:51:24;;;;;;;14.57;11.30;;;17.80;1.00;;;;;;5045917;28;20025;-84
2021/07/17 01:53:56;;;;;;;15.05;11.35;;;17.70;1.00;;;;;;5031059;28;20614;-85
2021/07/17 01:56:22;;;;;;;15.70;11.45;;;17.80;1.00;;;;;;5035134;28;20040;-84
2021/07/17 01:58:51;;;;;;;16.38;11.27;;;17.80;1.00;;;;;;5033984;28;20560;-85
2021/07/17 02:01:17;;;;;;;17.98;12.02;;;17.80;1.00;;;;;;5034180;28;20044;-85
2021/07/17 02:03:44;;;;;;;12.23;10.63;;;17.80;1.00;;;;;;5028542;28;20044;-85
2021/07/17 02:06:10;;;;;;;14.80;11.90;;;17.70;1.00;;;;;;5045254;28;20033;-84
2021/07/17 02:08:35;;;;;;;14.27;11.65;;;17.60;1.00;;;;;;5034796;28;20025;-85
2021/07/17 02:11:01;;;;;;;17.90;11.02;;;17.70;1.00;;;;;;5034685;28;20510;-84
2021/07/17 02:13:28;;;;;;;13.05;11.45;;;17.80;1.00;;;;;;5033679;28;20025;-85
2021/07/17 02:15:56;;;;;;;16.45;12.02;;;17.80;1.00;;;;;;5033507;28;20041;-85
2021/07/17 02:18:31;;;;;;;14.43;11.82;;;17.80;1.00;;;;;;5028557;28;20037;-85
2021/07/17 02:21:00;;;;;;;15.80;12.13;;;17.80;1.00;;;;;;5045423;28;20017;-85
2021/07/17 02:23:27;;;;;;;15.57;11.73;;;17.80;1.00;;;;;;5035682;28;20457;-85
2021/07/17 02:25:53;;;;;;;14.88;12.07;;;17.80;1.00;;;;;;5034110;28;20481;-84
2021/07/17 02:28:20;;;;;;;15.43;11.93;;;17.80;1.00;;;;;;5036150;28;20444;-85
2021/07/17 02:30:47;;;;;;;14.77;11.70;;;17.90;1.00;;;;;;5037269;28;20048;-85
2021/07/17 02:33:13;;;;;;;15.48;12.45;;;17.90;1.00;;;;;;5033190;28;20030;-85
2021/07/17 02:35:39;;;;;;;16.13;12.18;;;17.90;1.00;;;;;;5050639;28;20049;-85
2021/07/17 02:38:04;;;;;;;15.18;11.45;;;17.90;1.00;;;;;;5038501;28;20519;-85
2021/07/17 02:40:30;;;;;;;15.93;12.07;;;17.80;1.00;;;;;;5037680;28;20087;-85
2021/07/17 02:42:56;;;;;;;15.07;12.10;;;17.70;1.00;;;;;;5037632;28;20037;-85
2021/07/17 02:45:22;;;;;;;17.02;12.30;;;17.60;1.00;;;;;;5034045;28;20099;-85
2021/07/17 02:47:47;;;;;;;14.95;12.45;;;17.70;1.00;;;;;;5032878;28;20026;-85
2021/07/17 02:50:14;;;;;;;16.42;12.40;;;17.70;1.00;;;;;;5037128;28;20025;-84
2021/07/17 02:52:39;;;;;;;15.40;12.27;;;17.70;1.00;;;;;;5046399;28;20401;-84
2021/07/17 02:55:06;;;;;;;15.75;11.88;;;17.70;1.00;;;;;;5044569;28;20029;-85
2021/07/17 02:57:31;;;;;;;14.18;12.32;;;17.60;1.00;;;;;;5036687;28;20483;-85
2021/07/17 02:59:58;;;;;;;14.23;11.90;;;17.60;1.00;;;;;;5032796;28;20084;-84
2021/07/17 03:02:23;;;;;;;20.25;12.52;;;17.70;1.00;;;;;;5038971;28;20033;-84
2021/07/17 03:04:49;;;;;;;20.58;13.07;;;17.70;1.00;;;;;;5042356;28;20028;-84
2021/07/17 03:07:15;;;;;;;17.00;12.35;;;17.60;1.00;;;;;;5042325;28;20030;-84
2021/07/17 03:09:40;;;;;;;18.17;13.07;;;17.60;1.00;;;;;;5036842;28;20035;-85
2021/07/17 03:12:06;;;;;;;13.75;12.18;;;17.50;1.00;;;;;;5032763;28;20148;-84
2021/07/17 03:14:33;;;;;;;17.60;13.45;;;17.50;1.00;;;;;;5038049;28;20057;-84
2021/07/17 03:16:58;;;;;;;20.23;11.90;;;17.50;1.00;;;;;;5036557;28;20033;-85
2021/07/17 03:19:24;;;;;;;22.45;13.50;;;17.60;1.00;;;;;;5035257;28;20168;-84
2021/07/17 03:21:51;;;;;;;19.20;14.00;;;17.60;1.00;;;;;;5035185;28;20485;-84
2021/07/17 03:24:16;;;;;;;15.07;12.43;;;17.60;1.00;;;;;;5034107;28;20033;-84
2021/07/17 03:26:42;;;;;;;15.70;12.40;;;17.70;1.00;;;;;;5034314;28;20545;-85
2021/07/17 03:29:08;;;;;;;20.05;13.02;;;17.70;1.00;;;;;;5037260;28;20053;-85
2021/07/17 03:31:34;;;;;;;17.58;12.63;;;17.70;1.00;;;;;;5036597;28;20115;-85
2021/07/17 03:34:01;;;;;;;15.38;12.32;;;17.80;1.00;;;;;;5033593;28;20021;-85
2021/07/17 03:36:27;;;;;;;18.60;12.98;;;17.70;1.00;;;;;;5035649;28;20120;-85
2021/07/17 03:38:53;;;;;;;17.75;13.15;;;17.70;1.00;;;;;;5032456;28;20064;-84
2021/07/17 03:41:19;;;;;;;17.38;12.65;;;17.70;1.00;;;;;;5037944;28;20023;-84
2021/07/17 03:43:46;;;;;;;16.98;12.32;;;17.70;1.00;;;;;;5035800;28;20041;-84
2021/07/17 03:46:12;;;;;;;15.15;12.43;;;17.70;1.00;;;;;;5036173;28;20040;-85
2021/07/17 03:48:38;;;;;;;18.85;12.20;;;17.70;1.00;;;;;;5034192;28;20378;-85
2021/07/17 03:51:04;;;;;;;15.90;12.63;;;17.70;1.00;;;;;;5032253;28;20152;-85
2021/07/17 03:53:30;;;;;;;19.33;12.73;;;17.70;1.00;;;;;;5037834;28;20104;-84
2021/07/17 03:55:56;;;;;;;14.43;11.88;;;17.80;1.00;;;;;;5041518;28;20117;-85
2021/07/17 03:58:22;;;;;;;15.70;11.52;;;17.70;1.00;;;;;;5040426;28;20124;-85
2021/07/17 04:00:48;;;;;;;15.05;12.40;;;17.70;1.00;;;;;;5035572;28;20021;-84
2021/07/17 04:03:14;;;;;;;15.80;12.32;;;17.70;1.00;;;;;;5031535;28;20041;-85
2021/07/17 04:05:40;;;;;;;15.68;12.00;;;17.70;1.00;;;;;;5036127;28;20163;-85
2021/07/17 04:08:06;;;;;;;17.05;12.25;;;17.80;1.00;;;;;;5036601;28;20521;-85
2021/07/17 04:10:31;;;;;;;15.48;11.82;;;17.70;1.00;;;;;;5037779;28;20536;-84
2021/07/17 04:12:57;;;;;;;15.13;12.38;;;17.70;1.00;;;;;;5043977;28;20033;-84
2021/07/17 04:15:23;;;;;;;15.35;11.98;;;17.70;1.00;;;;;;5034084;28;20460;-85
2021/07/17 04:17:49;;;;;;;16.08;11.93;;;17.80;1.00;;;;;;5033188;28;20059;-84
2021/07/17 04:20:15;;;;;;;13.65;11.75;;;17.80;1.00;;;;;;5037855;28;20033;-84
2021/07/17 04:22:40;;;;;;;20.60;12.38;;;17.80;1.00;;;;;;5035369;28;20488;-84
2021/07/17 04:25:07;;;;;;;17.95;12.23;;;17.80;1.00;;;;;;5035042;28;20043;-84
2021/07/17 04:27:34;;;;;;;18.40;12.23;;;17.90;1.00;;;;;;5046502;28;20021;-85
2021/07/17 04:29:59;;;;;;;15.40;11.90;;;17.80;1.00;;;;;;5030561;28;20049;-85
2021/07/17 04:32:25;;;;;;;14.15;11.73;;;17.90;1.00;;;;;;5037475;28;20060;-84
2021/07/17 04:34:51;;;;;;;16.65;11.82;;;17.90;1.00;;;;;;5035152;28;20489;-84
2021/07/17 04:37:17;;;;;;;14.50;12.10;;;18.00;1.00;;;;;;5033871;28;20022;-84
2021/07/17 04:39:44;;;;;;;14.75;12.27;;;18.00;1.00;;;;;;5032606;28;20025;-85
2021/07/17 04:42:09;;;;;;;15.80;11.57;;;18.10;1.00;;;;;;5030994;28;20079;-85
2021/07/17 04:44:36;;;;;;;17.40;11.77;;;18.00;1.00;;;;;;5036052;28;20034;-84
2021/07/17 04:47:02;;;;;;;18.02;12.05;;;17.90;1.00;;;;;;5034153;28;20052;-84
2021/07/17 04:49:28;;;;;;;17.23;12.25;;;17.90;1.00;;;;;;5035026;28;20025;-85
2021/07/17 04:51:53;;;;;;;15.32;11.25;;;17.90;1.00;;;;;;5034942;28;20029;-85
2021/07/17 04:54:19;;;;;;;14.70;11.10;;;17.90;1.00;;;;;;5030592;28;20030;-85
2021/07/17 04:56:44;;;;;;;14.27;11.52;;;17.90;1.00;;;;;;5033251;28;20067;-85
2021/07/17 04:59:10;;;;;;;14.50;12.15;;;17.90;1.00;;;;;;5036387;28;20389;-85
2021/07/17 05:01:36;;;;;;;16.02;12.38;;;17.90;1.00;;;;;;5033959;28;20496;-85
2021/07/17 05:04:01;;;;;;;14.70;12.20;;;18.00;1.00;;;;;;5034753;28;20067;-85
2021/07/17 05:06:27;;;;;;;14.25;11.77;;;18.00;1.00;;;;;;5034163;28;20021;-84
2021/07/17 05:08:53;;;;;;;13.95;11.70;;;18.00;1.00;;;;;;5031229;28;20041;-85
2021/07/17 05:11:18;;;;;;;17.55;12.07;;;18.00;1.00;;;;;;5030804;28;20151;-84
2021/07/17 05:13:44;;;;;;;17.92;12.43;;;18.10;1.00;;;;;;5034511;28;20117;-84
2021/07/17 05:16:10;;;;;;;15.85;12.65;;;18.10;1.00;;;;;;5034644;28;20103;-84
2021/07/17 05:18:35;;;;;;;15.57;12.05;;;18.10;1.00;;;;;;5033026;28;20039;-85
2021/07/17 05:21:01;;;;;;;14.25;12.80;;;18.20;1.00;;;;;;5014718;28;20037;-86
2021/07/17 05:23:27;;;;;;;20.10;12.88;;;18.20;1.00;;;;;;5036546;28;20126;-86
2021/07/17 05:25:53;;;;;;;16.75;12.63;;;18.20;1.00;;;;;;5034726;28;20037;-86
2021/07/17 05:28:20;;;;;;;16.48;12.65;;;18.30;1.00;;;;;;5034611;28;20120;-86
2021/07/17 05:30:46;;;;;;;14.57;12.07;;;18.30;1.00;;;;;;5034843;28;20123;-86
2021/07/17 05:33:12;;;;;;;20.90;12.57;;;18.20;1.00;;;;;;5032064;28;20065;-86
2021/07/17 05:35:38;;;;;;;14.75;11.90;;;18.20;1.00;;;;;;5034374;28;20025;-86
2021/07/17 05:38:03;;;;;;;13.85;12.25;;;18.30;1.00;;;;;;5035039;28;20041;-87
2021/07/17 05:40:29;;;;;;;15.68;11.82;;;18.30;1.00;;;;;;5032680;28;20076;-86
2021/07/17 05:42:55;;;;;;;15.50;11.48;;;18.30;1.00;;;;;;5032037;28;20068;-86
2021/07/17 05:45:21;;;;;;;14.27;12.25;;;18.20;1.00;;;;;;5032467;28;20033;-86
2021/07/17 05:47:46;;;;;;;13.50;11.70;;;18.20;1.00;;;;;;5031244;28;20029;-87
2021/07/17 05:50:12;;;;;;;14.13;11.70;;;18.20;1.00;;;;;;5036495;28;20037;-87
2021/07/17 05:52:38;;;;;;;15.50;11.57;;;18.40;1.00;;;;;;5034625;28;20437;-86
2021/07/17 05:55:05;;;;;;;15.57;11.85;;;18.40;1.00;;;;;;5033871;28;20036;-87
2021/07/17 05:57:32;;;;;;;18.58;12.38;;;18.40;1.00;;;;;;5044462;28;20021;-87
2021/07/17 05:59:59;;;;;;;14.38;12.00;;;18.40;1.00;;;;;;5029795;28;20038;-87
2021/07/17 06:02:28;;;;;;;15.57;11.30;;;18.50;1.00;;;;;;5037194;28;20032;-87
2021/07/17 06:04:55;;;;;;;16.85;12.23;;;18.40;1.00;;;;;;5038541;28;20095;-87
2021/07/17 06:07:21;;;;;;;18.48;11.10;;;18.50;1.00;;;;;;5038226;28;20440;-86
2021/07/17 06:09:46;;;;;;;16.05;11.10;;;18.50;1.00;;;;;;5035665;28;20036;-85
2021/07/17 06:12:12;;;;;;;14.90;12.50;;;18.60;1.00;;;;;;5034688;28;20026;-83
2021/07/17 06:14:39;;;;;;;17.52;11.15;;;18.80;1.00;;;;;;5038452;28;20029;-84
2021/07/17 06:17:09;;;;;;;13.75;11.32;;;18.70;1.00;;;;;;5038935;28;20034;-84
2021/07/17 06:19:35;;;;;;;13.18;11.02;;;18.90;1.00;;;;;;5037787;28;20079;-84
2021/07/17 06:22:00;;;;;;;12.25;11.05;;;19.30;1.00;;;;;;5037309;28;20575;-85
2021/07/17 06:24:26;;;;;;;13.95;11.25;;;18.80;1.00;;;;;;5034750;28;20041;-84
2021/07/17 06:26:52;;;;;;;13.25;11.55;;;18.80;1.00;;;;;;5035136;28;20100;-84
2021/07/17 06:29:17;;;;;;;16.00;12.63;;;19.00;1.00;;;;;;5050680;28;20034;-82
2021/07/17 06:31:43;;;;;;;15.13;11.60;;;18.80;1.00;;;;;;5036152;28;20044;-83
2021/07/17 06:34:09;;;;;;;18.05;11.18;;;18.90;1.00;;;;;;5037761;28;20516;-85
2021/07/17 06:36:35;;;;;;;18.15;12.27;;;18.90;1.00;;;;;;5035698;28;20025;-84
2021/07/17 06:39:00;;;;;;;16.52;12.10;;;18.80;1.00;;;;;;5033149;28;20394;-84
2021/07/17 06:41:26;;;;;;;15.13;11.77;;;19.00;1.00;;;;;;5050118;28;20029;-84
2021/07/17 06:43:52;;;;;;;12.77;11.48;;;19.10;1.00;;;;;;5038472;28;20052;-84
2021/07/17 06:46:18;;;;;;;11.80;10.48;;;19.10;1.00;;;;;;5037538;28;20514;-85
2021/07/17 06:48:43;;;;;;;13.70;11.40;;;19.20;1.00;;;;;;5037296;28;20065;-85
2021/07/17 06:51:09;;;;;;;14.80;10.48;;;19.10;1.00;;;;;;5033174;28;20056;-85
2021/07/17 06:53:36;;;;;;;13.85;10.77;;;19.20;1.00;;;;;;5035774;28;20080;-85
2021/07/17 06:56:02;;;;;;;15.02;11.80;;;19.20;1.00;;;;;;5036384;28;20037;-85
2021/07/17 06:58:28;;;;;;;12.13;10.85;;;19.20;1.00;;;;;;5046453;28;20033;-85
2021/07/17 07:00:53;;;;;;;13.60;11.48;;;19.40;1.00;;;;;;5036758;28;20025;-85
2021/07/17 07:03:19;;;;;;;13.73;11.05;;;19.50;1.00;;;;;;5034501;28;20053;-85
2021/07/17 07:05:45;;;;;;;13.18;10.65;;;19.70;1.00;;;;;;5035337;28;20426;-86
2021/07/17 07:08:10;;;;;;;12.20;10.90;;;19.70;1.00;;;;;;5037606;28;20048;-85
2021/07/17 07:10:37;;;;;;;14.95;10.73;;;19.60;1.00;;;;;;5034797;28;20033;-85
2021/07/17 07:13:13;;;;;;;13.95;10.88;;;19.60;1.00;;;;;;5036119;28;20025;-85
2021/07/17 07:15:39;;;;;;;16.33;10.98;;;19.70;1.00;;;;;;5035728;28;20053;-85
2021/07/17 07:18:06;;;;;;;13.23;10.35;;;19.90;1.00;;;;;;5030459;28;20493;-85
2021/07/17 07:20:32;;;;;;;12.30;11.00;;;20.00;1.00;;;;;;5038462;28;20053;-85
2021/07/17 07:22:58;;;;;;;11.63;10.20;;;20.00;1.00;;;;;;5036709;28;20409;-86
2021/07/17 07:25:24;;;;;;;11.10;9.85;;;20.20;1.00;;;;;;5034568;28;20033;-85
2021/07/17 07:27:49;;;;;;;11.98;10.20;;;20.40;1.00;;;;;;5035008;28;20104;-85
2021/07/17 07:30:16;;;;;;;12.18;9.85;;;20.70;1.00;;;;;;5032648;28;20049;-85
2021/07/17 07:32:42;;;;;;;13.80;10.40;;;20.90;1.00;;;;;;5049494;28;20116;-86
2021/07/17 07:35:08;;;;;;;11.98;10.43;;;20.80;1.00;;;;;;5037010;28;20057;-85
2021/07/17 07:37:34;;;;;;;12.02;10.75;;;20.40;1.00;;;;;;5036698;28;20091;-85
2021/07/17 07:40:00;;;;;;;12.20;10.90;;;20.40;1.00;;;;;;5034447;28;20029;-86
2021/07/17 07:42:26;;;;;;;11.57;10.20;;;20.40;1.00;;;;;;5034752;28;20033;-86
2021/07/17 07:44:52;;;;;;;11.65;10.45;;;20.40;1.00;;;;;;5033633;28;20418;-85
2021/07/17 07:47:19;;;;;;;11.85;10.63;;;20.40;1.00;;;;;;5038137;28;20543;-85
2021/07/17 07:49:45;;;;;;;13.43;10.93;;;20.40;1.00;;;;;;5035033;28;20074;-85
2021/07/17 07:52:11;;;;;;;12.90;10.93;;;20.30;1.00;;;;;;5036409;28;20021;-85
2021/07/17 07:54:37;;;;;;;12.63;10.98;;;20.20;1.00;;;;;;5033821;28;20025;-85
2021/07/17 07:57:04;;;;;;;12.63;11.02;;;20.40;1.00;;;;;;5032201;28;20053;-85
2021/07/17 07:59:30;;;;;;;14.77;10.73;;;20.40;1.00;;;;;;5045626;28;20103;-86
2021/07/17 08:01:56;;;;;;;12.55;10.23;;;20.20;1.00;;;;;;5036064;28;20508;-86
2021/07/17 08:04:21;;;;;;;12.23;10.23;;;20.40;1.00;;;;;;5035946;28;20045;-86
2021/07/17 08:06:47;;;;;;;11.75;10.55;;;20.30;1.00;;;;;;5035796;28;20115;-86
2021/07/17 08:09:12;;;;;;;13.13;10.18;;;20.00;1.00;;;;;;5032147;28;20036;-86
2021/07/17 08:11:38;;;;;;;13.13;11.13;;;20.00;1.00;;;;;;5036482;28;20035;-85
2021/07/17 08:14:04;;;;;;;14.85;11.15;;;19.90;1.00;;;;;;5037014;28;20124;-85
2021/07/17 08:16:30;;;;;;;13.15;10.48;;;19.80;1.00;;;;;;5035867;28;20108;-86
2021/07/17 08:18:56;;;;;;;14.43;10.60;;;19.80;1.00;;;;;;5034290;28;20053;-86
2021/07/17 08:21:21;;;;;;;12.35;11.07;;;19.80;1.00;;;;;;5032441;28;20115;-85
2021/07/17 08:23:47;;;;;;;13.18;10.85;;;19.80;1.00;;;;;;5031825;28;20049;-86
2021/07/17 08:26:13;;;;;;;12.18;10.65;;;19.70;1.00;;;;;;5036338;28;20021;-87
2021/07/17 08:28:38;;;;;;;12.73;10.35;;;19.60;1.00;;;;;;5035699;28;20037;-86
2021/07/17 08:31:04;;;;;;;11.70;10.23;;;19.70;1.00;;;;;;5035227;28;20044;-86
2021/07/17 08:33:32;;;;;;;13.40;10.77;;;19.60;1.00;;;;;;5033477;28;20435;-86
2021/07/17 08:35:58;;;;;;;13.10;10.95;;;19.70;1.00;;;;;;5032044;28;20040;-86
2021/07/17 08:38:23;;;;;;;13.00;11.68;;;19.70;1.00;;;;;;5035511;28;20026;-86
2021/07/17 08:40:54;;;;;;;13.85;11.05;;;19.60;1.00;;;;;;5035716;28;20045;-86
2021/07/17 08:43:21;;;;;;;14.00;11.20;;;19.80;1.00;;;;;;5034064;28;20091;-86
2021/07/17 08:45:48;;;;;;;16.48;11.70;;;19.80;1.00;;;;;;5035134;28;20488;-86
2021/07/17 08:48:15;;;;;;;12.85;11.15;;;19.80;1.00;;;;;;5030056;28;20030;-86
2021/07/17 08:50:41;;;;;;;14.10;10.75;;;20.00;1.00;;;;;;5035232;28;20045;-87
2021/07/17 08:53:07;;;;;;;12.60;11.30;;;20.10;1.00;;;;;;5035965;28;20032;-86
2021/07/17 08:55:33;;;;;;;15.98;11.70;;;20.30;1.00;;;;;;5038722;28;20036;-86
2021/07/17 08:58:00;;;;;;;14.63;12.70;;;20.30;1.00;;;;;;5043516;28;20033;-86
2021/07/17 09:00:36;;;;;;;15.68;12.75;;;20.10;1.00;;;;;;5032280;28;20443;-86
2021/07/17 09:03:09;;;;;;;15.68;12.05;;;19.80;1.00;;;;;;5015086;28;20057;-87
2021/07/17 09:05:42;;;;;;;15.77;12.65;;;19.90;1.00;;;;;;5060408;28;20021;-86
2021/07/17 09:08:09;;;;;;;17.67;13.50;;;19.90;1.00;;;;;;5034864;28;20581;-86
2021/07/17 09:10:39;;;;;;;18.00;13.23;;;19.80;1.00;;;;;;5032614;28;20033;-86
2021/07/17 09:13:06;;;;;;;17.73;13.05;;;19.70;1.00;;;;;;5033908;28;20502;-86
2021/07/17 09:15:32;;;;;;;17.27;13.15;;;19.70;1.00;;;;;;5033895;28;20115;-86
2021/07/17 09:17:57;;;;;;;16.10;13.38;;;19.60;1.00;;;;;;5030766;28;20216;-86
2021/07/17 09:20:23;;;;;;;19.15;13.23;;;19.90;1.00;;;;;;5037250;28;20030;-86
2021/07/17 09:23:00;;;;;;;22.50;13.52;;;20.10;1.00;;;;;;5034224;28;20045;-86
2021/07/17 09:25:36;;;;;;;18.23;13.57;;;20.40;1.00;;;;;;5037575;28;20032;-86
2021/07/17 09:28:19;;;;;;;18.77;13.43;;;20.30;1.00;;;;;;5034425;28;20056;-86
2021/07/17 09:30:46;;;;;;;16.02;13.82;;;20.00;1.00;;;;;;5034203;28;20062;-87
2021/07/17 09:33:13;;;;;;;18.48;14.50;;;20.00;1.00;;;;;;5030615;28;20026;-87
2021/07/17 09:35:40;;;;;;;17.30;14.25;;;20.00;1.00;;;;;;5034700;28;20029;-87
2021/07/17 09:38:07;;;;;;;16.55;13.93;;;20.30;1.00;;;;;;5034822;28;20512;-87
2021/07/17 09:41:05;;;;;;;17.38;14.18;;;20.20;1.00;;;;;;5030601;28;20061;-87
2021/07/17 09:43:41;;;;;;;17.45;13.45;;;20.00;1.00;;;;;;5035546;28;20051;-87
2021/07/17 09:46:24;;;;;;;17.42;13.30;;;20.00;1.00;;;;;;5041540;28;20104;-87
2021/07/17 09:48:52;;;;;;;15.80;12.82;;;20.10;1.00;;;;;;5034537;28;20119;-87
2021/07/17 09:51:20;;;;;;;15.63;13.05;;;20.30;1.00;;;;;;5031088;28;20017;-87
2021/07/17 09:54:00;;;;;;;21.20;12.95;;;20.50;1.00;;;;;;5032879;28;20036;-87
2021/07/17 09:56:34;;;;;;;19.25;13.23;;;20.40;1.00;;;;;;5034849;28;20018;-86
2021/07/17 09:59:02;;;;;;;14.13;12.57;;;20.50;1.00;;;;;;5034314;28;20554;-85
2021/07/17 10:01:39;;;;;;;16.52;13.68;;;20.50;1.00;;;;;;5032881;28;20026;-85
2021/07/17 10:04:10;;;;;;;18.35;13.20;;;20.70;1.00;;;;;;5032502;28;20041;-85
2021/07/17 10:06:43;;;;;;;15.63;13.02;;;20.80;1.00;;;;;;5033242;28;20032;-86
2021/07/17 10:09:14;;;;;;;16.65;13.27;;;20.60;1.00;;;;;;5015433;28;20718;-86
2021/07/17 10:11:42;;;;;;;15.93;13.95;;;20.80;1.00;;;;;;5032445;28;20091;-86
2021/07/17 10:14:16;;;;;;;17.33;13.68;;;21.00;1.00;;;;;;5034539;28;20084;-86
2021/07/17 10:16:42;;;;;;;14.68;13.10;;;21.10;1.00;;;;;;5032138;28;20033;-86
2021/07/17 10:19:08;;;;;;;15.10;13.18;;;21.20;1.00;;;;;;5034168;28;20018;-86
2021/07/17 10:21:35;;;;;;;16.15;13.40;;;21.30;1.00;;;;;;5033248;28;20025;-85
2021/07/17 10:24:02;;;;;;;15.30;12.65;;;21.60;1.00;;;;;;5034391;28;20036;-86
2021/07/17 10:26:28;;;;;;;14.73;12.52;;;21.50;1.00;;;;;;5036816;28;20082;-86
2021/07/17 10:29:02;;;;;;;16.17;13.07;;;21.40;1.00;;;;;;5033098;28;20109;-88
2021/07/17 10:31:27;;;;;;;14.73;12.57;;;21.20;1.00;;;;;;5030732;28;20053;-87
2021/07/17 10:33:54;;;;;;;15.30;12.73;;;21.50;1.00;;;;;;5033766;28;20028;-87
2021/07/17 10:36:21;;;;;;;13.68;12.15;;;21.50;1.00;;;;;;5030426;28;20038;-87
2021/07/17 10:38:51;;;;;;;14.68;12.45;;;21.60;1.00;;;;;;5031753;28;20132;-87
2021/07/17 10:41:18;;;;;;;15.18;12.48;;;21.70;1.00;;;;;;5033408;28;20033;-86
2021/07/17 10:43:53;;;;;;;14.20;12.30;;;21.40;1.00;;;;;;5032807;28;20041;-86
2021/07/17 10:46:29;;;;;;;14.13;12.30;;;21.40;1.00;;;;;;5031864;28;20057;-85
2021/07/17 10:48:57;;;;;;;13.98;12.48;;;21.50;1.00;;;;;;5033682;28;20101;-86
2021/07/17 10:51:22;;;;;;;15.23;13.48;;;21.40;1.00;;;;;;5035781;28;20044;-87
2021/07/17 10:53:56;;;;;;;14.55;12.05;;;21.40;1.00;;;;;;5035030;28;20025;-88
2021/07/17 10:56:27;;;;;;;14.00;12.27;;;21.20;1.00;;;;;;5038117;28;20036;-87
2021/07/17 10:59:26;;;;;;;15.65;13.07;;;21.10;1.00;;;;;;5034169;28;20075;-87
2021/07/17 11:01:58;;;;;;;16.17;12.60;;;21.10;1.00;;;;;;5037331;28;20029;-88
2021/07/17 11:04:50;;;;;;;15.52;12.02;;;21.00;1.00;;;;;;5037070;28;20041;-87
2021/07/17 11:07:18;;;;;;;14.25;12.50;;;21.00;1.00;;;;;;5036927;28;20037;-87
2021/07/17 11:09:56;;;;;;;15.60;13.07;;;21.00;1.00;;;;;;5036032;28;20021;-87
2021/07/17 11:12:25;;;;;;;15.20;12.57;;;21.00;1.00;;;;;;5034605;28;20045;-87
2021/07/17 11:14:51;;;;;;;14.20;12.23;;;21.00;1.00;;;;;;5033752;28;20033;-87
2021/07/17 11:17:42;;;;;;;14.15;12.45;;;21.00;1.00;;;;;;5038834;28;20053;-87
2021/07/17 11:20:29;;;;;;;15.38;12.30;;;21.00;1.00;;;;;;5035667;28;20082;-87
2021/07/17 11:23:16;;;;;;;14.07;12.57;;;21.10;1.00;;;;;;5034240;28;20065;-88
2021/07/17 11:26:00;;;;;;;15.48;12.50;;;21.10;1.00;;;;;;5036528;28;20044;-87
2021/07/17 11:28:46;;;;;;;14.68;13.18;;;21.10;1.00;;;;;;5036749;28;20025;-87
2021/07/17 11:31:27;;;;;;;14.90;12.18;;;21.10;1.00;;;;;;5036841;28;20513;-86
2021/07/17 11:34:14;;;;;;;15.93;12.90;;;21.10;1.00;;;;;;5036747;28;20122;-87
2021/07/17 11:36:51;;;;;;;16.35;12.90;;;21.40;1.00;;;;;;5036921;28;20543;-87
2021/07/17 11:39:20;;;;;;;14.90;11.57;;;21.40;1.00;;;;;;5033698;28;20065;-87
2021/07/17 11:41:46;;;;;;;14.40;12.90;;;21.40;1.00;;;;;;5033715;28;20033;-87
2021/07/17 11:44:12;;;;;;;14.88;12.13;;;21.30;1.00;;;;;;5037364;28;20033;-87
2021/07/17 11:46:56;;;;;;;14.20;12.40;;;21.30;1.00;;;;;;5036801;28;20394;-87
2021/07/17 11:49:29;;;;;;;14.48;12.30;;;21.20;1.00;;;;;;5035106;28;20041;-87
2021/07/17 11:52:01;;;;;;;14.10;12.45;;;21.30;1.00;;;;;;5036686;28;20110;-87
2021/07/17 11:54:30;;;;;;;13.48;12.05;;;21.50;1.00;;;;;;5034725;28;20017;-87
2021/07/17 11:57:08;;;;;;;18.23;12.43;;;21.80;1.00;;;;;;5032886;28;20026;-87
2021/07/17 11:59:35;;;;;;;14.35;12.10;;;22.40;1.00;;;;;;5031277;28;20026;-87
2021/07/17 12:02:10;;;;;;;14.02;12.52;;;22.60;1.00;;;;;;5036321;28;20420;-87
2021/07/17 12:04:41;;;;;;;13.80;12.23;;;22.50;1.00;;;;;;5044865;28;20048;-87
2021/07/17 12:07:12;;;;;;;14.68;12.75;;;22.90;1.00;;;;;;5043528;28;20025;-87
2021/07/17 12:09:41;;;;;;;16.10;12.80;;;23.40;1.00;;;;;;5034034;28;20029;-88
2021/07/17 12:12:24;;;;;;;15.70;12.20;;;23.30;1.00;;;;;;5032031;28;20499;-87
2021/07/17 12:14:57;;;;;;;16.05;12.23;;;23.40;1.00;;;;;;5032572;28;20040;-87
2021/07/17 12:17:23;;;;;;;14.43;12.73;;;23.30;1.00;;;;;;5051367;28;20024;-87
2021/07/17 12:20:02;;;;;;;13.27;11.73;;;23.20;1.00;;;;;;5037253;28;20053;-87
2021/07/17 12:22:28;;;;;;;13.80;11.60;;;23.10;1.00;;;;;;5034382;28;20033;-87
2021/07/17 12:25:04;;;;;;;12.60;11.27;;;23.00;1.00;;;;;;5035386;28;20520;-87
2021/07/17 12:27:30;;;;;;;14.02;11.93;;;22.70;1.00;;;;;;5031948;28;20021;-88
2021/07/17 12:29:55;;;;;;;15.02;11.68;;;22.40;1.00;;;;;;5030786;28;20521;-87
2021/07/17 12:32:21;;;;;;;14.80;13.10;;;22.30;1.00;;;;;;5037793;28;20037;-87
2021/07/17 12:34:56;;;;;;;14.32;12.05;;;22.20;1.00;;;;;;5035978;28;20041;-87
2021/07/17 12:37:27;;;;;;;18.17;13.20;;;22.30;1.00;;;;;;5037077;28;20044;-87
2021/07/17 12:40:06;;;;;;;14.10;12.70;;;22.20;1.00;;;;;;5044891;28;20482;-87